Time;durP1;ratioP1;P1;durP2;ratioP2;P2;SDS_P1;SDS_P2;PMS_P1;PMS_P2;Temp;Humidity;BMP_temperature;BMP_pressure;BME280_temperature;BME280_humidity;BME280_pressure;Samples;Min_cycle;Max_cycle;Signal;HPM_P1;HPM_P2
2022/11/10 00:00:56;;;;;;;2.70;0.98;;;10.00;99.90;;;;;;5013068;28;20128;-68
2022/11/10 00:03:22;;;;;;;6.50;1.17;;;10.00;99.90;;;;;;5013202;28;20195;-67
2022/11/10 00:05:48;;;;;;;4.80;1.03;;;9.90;99.90;;;;;;5014192;28;20302;-67
2022/11/10 00:08:13;;;;;;;7.83;1.47;;;10.00;99.90;;;;;;5014734;28;20280;-67
2022/11/10 00:11:00;;;;;;;7.97;1.30;;;10.00;99.90;;;;;;5015470;28;20563;-67
2022/11/10 00:13:35;;;;;;;3.20;1.33;;;10.00;99.90;;;;;;5016088;28;20092;-68
2022/11/10 00:18:49;;;;;;;3.08;1.10;;;10.00;99.90;;;;;;5023239;28;20092;-67
2022/11/10 00:21:16;;;;;;;4.53;1.33;;;10.00;99.90;;;;;;5013259;28;20049;-68
2022/11/10 00:23:42;;;;;;;5.97;1.45;;;10.00;99.90;;;;;;5024182;28;20053;-67
2022/11/10 00:26:17;;;;;;;11.55;1.33;;;10.00;99.90;;;;;;5020092;28;20050;-68
2022/11/10 00:28:43;;;;;;;5.75;0.95;;;9.90;99.90;;;;;;5024373;28;20077;-67
2022/11/10 00:31:10;;;;;;;4.60;1.30;;;10.00;99.90;;;;;;5021087;28;20064;-68
2022/11/10 00:33:38;;;;;;;5.20;1.40;;;10.00;99.90;;;;;;5020265;28;20176;-67
2022/11/10 00:36:05;;;;;;;3.65;1.30;;;10.00;99.90;;;;;;5019589;28;20395;-67
2022/11/10 00:38:30;;;;;;;;;;;10.00;99.90;;;;;;5015055;28;20046;-67
2022/11/10 00:40:58;;;;;;;6.85;1.52;;;10.00;99.90;;;;;;5013676;28;20335;-68
2022/11/10 00:43:24;;;;;;;11.50;1.63;;;10.00;99.90;;;;;;5013138;28;20518;-67
2022/11/10 00:45:50;;;;;;;4.22;1.25;;;10.00;99.90;;;;;;5015613;28;20636;-68
2022/11/10 00:48:16;;;;;;;8.93;1.70;;;10.00;99.90;;;;;;5031681;28;20391;-67
2022/11/10 00:50:42;;;;;;;3.37;1.27;;;10.00;99.90;;;;;;4996214;28;20046;-68
2022/11/10 00:53:07;;;;;;;4.50;1.17;;;10.00;99.90;;;;;;5019208;28;20033;-67
2022/11/10 00:55:40;;;;;;;7.77;2.17;;;10.00;99.90;;;;;;5013793;28;20382;-68
2022/11/10 00:58:06;;;;;;;6.00;1.60;;;10.00;99.90;;;;;;5026736;28;20045;-67
2022/11/10 01:00:32;;;;;;;7.95;1.73;;;10.10;99.90;;;;;;5021370;28;20033;-68
2022/11/10 01:02:57;;;;;;;6.93;2.08;;;10.00;99.90;;;;;;5017542;28;20211;-67
2022/11/10 01:05:23;;;;;;;4.33;2.03;;;10.00;99.90;;;;;;5007700;28;20276;-67
2022/11/10 01:07:51;;;;;;;10.15;1.77;;;10.00;99.90;;;;;;5020993;28;20038;-68
2022/11/10 01:10:17;;;;;;;4.45;1.55;;;9.90;99.90;;;;;;5010096;28;20045;-68
2022/11/10 01:12:43;;;;;;;4.90;1.10;;;10.00;99.90;;;;;;5008134;28;20041;-67
2022/11/10 01:15:09;;;;;;;9.15;1.85;;;9.90;99.90;;;;;;5011622;28;20046;-67
2022/11/10 01:17:35;;;;;;;3.50;1.40;;;9.90;99.90;;;;;;5021044;28;20077;-68
2022/11/10 01:20:00;;;;;;;4.47;1.20;;;9.90;99.90;;;;;;5013583;28;20143;-68
2022/11/10 01:22:26;;;;;;;8.80;2.37;;;9.90;99.90;;;;;;5006799;28;20581;-67
2022/11/10 01:24:52;;;;;;;9.90;1.93;;;9.80;99.90;;;;;;5018228;28;20639;-67
2022/11/10 01:27:17;;;;;;;9.57;2.07;;;9.90;99.90;;;;;;5008549;28;20490;-67
2022/11/10 01:29:43;;;;;;;6.60;1.60;;;9.80;99.90;;;;;;5017024;28;20412;-67
2022/11/10 01:32:08;;;;;;;8.33;1.90;;;9.80;99.90;;;;;;5015380;28;20371;-67
2022/11/10 01:34:34;;;;;;;8.87;2.00;;;9.80;99.90;;;;;;5016108;28;20041;-67
2022/11/10 01:37:00;;;;;;;6.07;1.70;;;9.80;99.90;;;;;;4995771;28;20426;-67
2022/11/10 01:39:25;;;;;;;3.97;1.52;;;9.80;99.90;;;;;;5016069;28;20120;-67
2022/11/10 01:41:51;;;;;;;9.43;1.97;;;9.80;99.90;;;;;;5014842;28;20525;-67
2022/11/10 01:44:20;;;;;;;6.80;1.70;;;9.80;99.90;;;;;;4990054;28;20042;-67
2022/11/10 01:46:46;;;;;;;12.77;2.33;;;9.80;99.90;;;;;;5015673;28;20044;-67
2022/11/10 01:49:14;;;;;;;7.87;1.93;;;9.80;99.90;;;;;;5022623;28;20044;-68
2022/11/10 01:52:05;;;;;;;7.75;1.13;;;9.80;99.90;;;;;;5021136;28;20433;-67
2022/11/10 01:54:41;;;;;;;4.38;1.60;;;9.80;99.90;;;;;;5010951;28;20132;-67
2022/11/10 01:57:11;;;;;;;6.70;1.80;;;9.80;99.90;;;;;;5007325;28;20092;-67
2022/11/10 01:59:45;;;;;;;5.45;1.45;;;9.80;99.90;;;;;;5015322;28;20323;-67
2022/11/10 02:02:20;;;;;;;5.20;1.65;;;9.80;99.90;;;;;;5014457;28;20421;-67
2022/11/10 02:04:47;;;;;;;9.77;1.65;;;9.80;99.90;;;;;;5006519;28;20446;-68
2022/11/10 02:07:13;;;;;;;9.35;1.95;;;9.80;99.90;;;;;;5015091;28;20049;-67
2022/11/10 02:09:39;;;;;;;8.98;2.17;;;9.80;99.90;;;;;;5019339;28;20168;-67
2022/11/10 02:12:04;;;;;;;7.67;1.90;;;9.80;99.90;;;;;;5009912;28;20137;-68
2022/11/10 02:14:30;;;;;;;8.35;1.83;;;9.80;99.90;;;;;;5013166;28;20175;-67
2022/11/10 02:16:56;;;;;;;5.55;1.52;;;9.80;99.90;;;;;;5016766;28;20164;-67
2022/11/10 02:19:25;;;;;;;9.60;2.10;;;9.80;99.90;;;;;;5010261;28;20076;-67
2022/11/10 02:21:50;;;;;;;7.25;1.83;;;9.80;99.90;;;;;;5011734;28;20087;-67
2022/11/10 02:24:16;;;;;;;4.13;1.67;;;9.80;99.90;;;;;;5015492;28;20052;-67
2022/11/10 02:26:53;;;;;;;5.50;1.80;;;9.80;99.90;;;;;;5016021;28;20050;-67
2022/11/10 02:29:19;;;;;;;6.32;1.65;;;9.80;99.90;;;;;;5015547;28;20492;-67
2022/11/10 02:31:45;;;;;;;5.45;1.88;;;9.80;99.90;;;;;;5010784;28;20099;-67
2022/11/10 02:34:11;;;;;;;10.60;2.70;;;9.80;99.90;;;;;;5016845;28;20046;-68
2022/11/10 02:36:36;;;;;;;7.22;2.05;;;9.80;99.90;;;;;;5003752;28;20352;-67
2022/11/10 02:39:02;;;;;;;10.70;2.37;;;9.80;99.90;;;;;;5024815;28;20152;-67
2022/11/10 02:41:28;;;;;;;11.45;1.92;;;9.80;99.90;;;;;;5014671;28;20457;-68
2022/11/10 02:43:56;;;;;;;5.83;2.07;;;9.80;99.90;;;;;;5003331;28;20099;-67
2022/11/10 02:46:22;;;;;;;7.10;1.67;;;9.80;99.90;;;;;;5026108;28;20529;-67
2022/11/10 02:48:47;;;;;;;5.77;1.87;;;9.80;99.90;;;;;;5024512;28;20041;-67
2022/11/10 02:51:13;;;;;;;10.33;2.10;;;9.90;99.90;;;;;;5008338;28;20299;-67
2022/11/10 02:53:39;;;;;;;6.17;2.30;;;9.80;99.90;;;;;;5020226;28;20042;-67
2022/11/10 02:56:05;;;;;;;9.27;1.77;;;9.80;99.90;;;;;;5018280;28;20033;-67
2022/11/10 02:58:31;;;;;;;6.60;1.58;;;9.90;99.90;;;;;;5013737;28;20037;-67
2022/11/10 03:00:56;;;;;;;9.50;2.40;;;9.80;99.90;;;;;;5020733;28;20509;-67
2022/11/10 03:03:22;;;;;;;11.10;2.40;;;9.90;99.90;;;;;;5015719;28;20377;-67
2022/11/10 03:05:48;;;;;;;4.93;1.60;;;9.90;99.90;;;;;;5017464;28;20053;-67
2022/11/10 03:08:14;;;;;;;7.60;1.80;;;9.90;99.90;;;;;;5013871;28;20377;-67
2022/11/10 03:10:39;;;;;;;11.30;1.90;;;9.90;99.90;;;;;;5013398;28;20318;-67
2022/11/10 03:13:05;;;;;;;11.77;1.57;;;9.90;99.90;;;;;;5020757;28;20120;-67
2022/11/10 03:15:31;;;;;;;9.07;2.10;;;9.90;99.90;;;;;;5014553;28;20034;-67
2022/11/10 03:18:02;;;;;;;5.77;1.60;;;9.90;99.90;;;;;;5010443;28;20036;-67
2022/11/10 03:20:28;;;;;;;9.25;1.90;;;9.90;99.90;;;;;;5074363;22;20092;-73
2022/11/10 03:22:59;;;;;;;4.60;1.75;;;9.90;99.90;;;;;;4994454;28;20076;-73
2022/11/10 03:25:25;;;;;;;7.53;1.83;;;9.90;99.90;;;;;;4979332;28;20395;-73
2022/11/10 03:27:51;;;;;;;6.83;1.73;;;9.90;99.90;;;;;;4991493;28;20125;-73
2022/11/10 03:30:18;;;;;;;5.15;1.50;;;10.00;99.90;;;;;;4995015;28;20710;-73
2022/11/10 03:32:43;;;;;;;12.57;1.67;;;9.90;99.90;;;;;;4988166;28;20062;-73
2022/11/10 03:35:09;;;;;;;6.63;1.90;;;9.90;99.90;;;;;;4999292;28;20081;-73
2022/11/10 03:37:35;;;;;;;10.77;2.17;;;9.90;99.90;;;;;;4983973;28;20042;-73
2022/11/10 03:40:01;;;;;;;6.57;1.50;;;9.90;99.90;;;;;;4980446;28;20128;-73
2022/11/10 03:42:27;;;;;;;7.28;1.73;;;9.90;99.90;;;;;;4983096;28;20161;-73
2022/11/10 03:44:53;;;;;;;7.20;2.23;;;9.90;99.90;;;;;;4995927;28;20046;-73
2022/11/10 03:47:19;;;;;;;9.57;1.60;;;9.90;99.90;;;;;;4982192;28;20322;-72
2022/11/10 03:49:44;;;;;;;11.85;1.83;;;10.00;99.90;;;;;;5000526;28;20084;-73
2022/11/10 03:52:10;;;;;;;12.80;2.88;;;10.00;99.90;;;;;;4982881;28;20416;-73
2022/11/10 03:54:36;;;;;;;6.03;1.90;;;10.00;99.90;;;;;;4965802;28;20049;-73
2022/11/10 03:57:01;;;;;;;10.63;1.73;;;10.00;99.90;;;;;;4967331;28;20046;-73
2022/11/10 03:59:27;;;;;;;7.27;1.90;;;10.00;99.90;;;;;;4979220;28;20042;-73
2022/11/10 04:01:53;;;;;;;8.13;1.93;;;10.00;99.90;;;;;;4985145;28;20522;-73
2022/11/10 04:09:46;;;;;;;7.22;1.65;;;10.00;99.90;;;;;;4998307;28;20140;-73
2022/11/10 04:18:19;;;;;;;5.35;1.48;;;10.00;99.90;;;;;;4976212;28;20054;-73
2022/11/10 04:20:44;;;;;;;11.60;2.13;;;10.00;99.90;;;;;;4998061;28;20132;-73
2022/11/10 04:23:28;;;;;;;9.18;2.55;;;10.10;99.90;;;;;;4982125;28;20484;-73
2022/11/10 04:28:39;;;;;;;5.20;1.90;;;10.10;99.90;;;;;;4980605;28;20046;-73
2022/11/10 04:31:06;;;;;;;9.93;1.95;;;10.10;99.90;;;;;;4996718;28;20046;-73
2022/11/10 04:33:32;;;;;;;8.10;2.00;;;10.10;99.90;;;;;;4964202;28;20413;-73
2022/11/10 04:35:57;;;;;;;12.68;1.92;;;10.00;99.90;;;;;;4994095;28;20117;-73
2022/11/10 04:38:23;;;;;;;10.07;1.40;;;10.10;99.90;;;;;;4994852;28;20089;-73
2022/11/10 04:40:49;;;;;;;5.37;1.10;;;10.10;99.90;;;;;;4973491;28;20056;-73
2022/11/10 04:43:14;;;;;;;11.97;2.53;;;10.10;99.90;;;;;;4981965;28;20311;-73
2022/11/10 04:45:41;;;;;;;6.43;1.87;;;10.10;99.90;;;;;;4976642;28;20064;-73
2022/11/10 04:48:07;;;;;;;11.95;2.03;;;10.10;99.90;;;;;;4975052;28;20095;-73
2022/11/10 04:50:33;;;;;;;7.10;1.87;;;10.10;99.90;;;;;;4990461;28;20488;-73
2022/11/10 04:52:59;;;;;;;8.32;1.67;;;10.10;99.90;;;;;;4979843;28;20041;-72
2022/11/10 04:55:24;;;;;;;10.17;2.40;;;10.10;99.90;;;;;;4996376;28;20064;-73
2022/11/10 04:57:50;;;;;;;11.87;2.10;;;10.10;99.90;;;;;;5001124;28;20069;-73
2022/11/10 05:00:16;;;;;;;8.37;1.30;;;10.10;99.90;;;;;;4982350;28;20292;-73
2022/11/10 05:02:42;;;;;;;4.85;1.92;;;10.10;99.90;;;;;;4978741;28;20393;-73
2022/11/10 05:05:10;;;;;;;4.77;1.40;;;10.10;99.90;;;;;;4981245;28;20076;-73
2022/11/10 05:07:38;;;;;;;12.13;1.63;;;10.10;99.90;;;;;;5002118;28;20144;-73
2022/11/10 05:10:04;;;;;;;9.13;1.95;;;10.10;99.90;;;;;;4980158;28;20136;-73
2022/11/10 05:12:30;;;;;;;12.73;2.45;;;10.10;99.90;;;;;;4991758;28;20052;-73
2022/11/10 05:14:56;;;;;;;6.03;1.53;;;10.10;99.90;;;;;;4981761;28;20046;-73
2022/11/10 05:17:22;;;;;;;8.02;1.58;;;10.10;99.90;;;;;;4996867;28;20142;-73
2022/11/10 05:19:48;;;;;;;8.90;1.65;;;10.10;99.90;;;;;;4979588;28;20038;-73
2022/11/10 05:22:13;;;;;;;11.67;1.90;;;10.10;99.90;;;;;;5002533;28;20557;-73
2022/11/10 05:24:39;;;;;;;9.10;2.03;;;10.10;99.90;;;;;;4999600;28;20050;-79
2022/11/10 05:27:07;;;;;;;8.35;1.80;;;10.10;99.90;;;;;;5003222;28;20038;-75
2022/11/10 05:29:33;;;;;;;11.55;2.38;;;10.20;99.90;;;;;;4984049;28;20132;-75
2022/11/10 05:31:58;;;;;;;8.30;1.83;;;10.10;99.90;;;;;;4963079;28;20495;-75
2022/11/10 05:34:24;;;;;;;10.02;1.75;;;10.10;99.90;;;;;;4987907;28;20156;-75
2022/11/10 05:36:50;;;;;;;14.53;2.50;;;10.20;99.90;;;;;;4998750;28;20192;-76
2022/11/10 05:39:15;;;;;;;9.17;1.60;;;10.20;99.90;;;;;;5000293;28;20144;-75
2022/11/10 05:41:41;;;;;;;9.10;2.00;;;10.20;99.90;;;;;;5000380;28;20034;-74
2022/11/10 05:44:07;;;;;;;11.00;1.80;;;10.20;99.90;;;;;;4999640;28;20116;-75
2022/11/10 05:46:32;;;;;;;10.25;1.90;;;10.20;99.90;;;;;;4981711;28;20046;-74
2022/11/10 05:48:58;;;;;;;8.30;1.57;;;10.20;99.90;;;;;;5009514;28;20037;-76
2022/11/10 05:51:24;;;;;;;8.67;1.70;;;10.20;99.90;;;;;;5002444;28;20534;-77
2022/11/10 05:53:49;;;;;;;8.13;1.70;;;10.20;99.90;;;;;;5003645;28;20034;-74
2022/11/10 05:56:15;;;;;;;10.00;2.13;;;10.20;99.90;;;;;;4990778;28;20203;-75
2022/11/10 05:58:41;;;;;;;7.87;1.83;;;10.20;99.90;;;;;;4986692;28;20042;-80
2022/11/10 06:01:07;;;;;;;9.23;2.13;;;10.20;99.90;;;;;;4998139;28;20376;-73
2022/11/10 06:03:32;;;;;;;9.48;2.13;;;10.20;99.90;;;;;;4987553;28;20220;-74
2022/11/10 06:05:58;;;;;;;9.02;1.65;;;10.20;99.90;;;;;;5005162;28;20503;-74
2022/11/10 06:08:24;;;;;;;9.23;2.03;;;10.10;99.90;;;;;;4986192;28;20064;-76
2022/11/10 06:10:49;;;;;;;15.77;2.03;;;10.10;99.90;;;;;;4985192;28;22336;-72
2022/11/10 06:13:15;;;;;;;5.93;1.37;;;10.20;99.90;;;;;;4999691;28;20491;-79
2022/11/10 06:15:41;;;;;;;10.00;1.83;;;10.10;99.90;;;;;;4982416;28;20702;-72
2022/11/10 06:18:06;;;;;;;10.53;1.77;;;10.10;99.90;;;;;;4987435;28;20775;-72
2022/11/10 06:20:32;;;;;;;9.30;1.77;;;10.10;99.90;;;;;;4983402;28;20053;-73
2022/11/10 06:23:04;;;;;;;11.70;2.15;;;10.10;99.90;;;;;;4992478;28;20611;-72
2022/11/10 06:25:32;;;;;;;10.02;1.95;;;10.10;99.90;;;;;;5001950;28;20045;-72
2022/11/10 06:27:57;;;;;;;8.02;1.83;;;10.10;99.90;;;;;;4987543;28;20566;-72
2022/11/10 06:30:24;;;;;;;11.17;1.77;;;10.10;99.90;;;;;;4979698;28;20065;-71
2022/11/10 06:32:50;;;;;;;;;;;10.10;99.90;;;;;;4979217;28;20295;-74
2022/11/10 06:35:15;;;;;;;10.35;2.38;;;10.10;99.90;;;;;;4985381;28;19970;-72
2022/11/10 06:37:41;;;;;;;13.38;1.95;;;10.00;99.90;;;;;;4985655;28;20519;-72
2022/11/10 06:40:09;;;;;;;11.85;2.00;;;10.00;99.90;;;;;;4977391;28;20307;-72
2022/11/10 06:42:35;;;;;;;9.35;2.10;;;10.00;99.90;;;;;;5007257;28;20569;-72
2022/11/10 06:45:01;;;;;;;10.57;1.88;;;10.00;99.90;;;;;;4987142;28;20107;-72
2022/11/10 06:47:27;;;;;;;10.20;2.00;;;10.00;99.90;;;;;;4995218;28;20054;-72
2022/11/10 06:49:53;;;;;;;12.27;1.98;;;10.00;99.90;;;;;;5005546;28;20045;-73
2022/11/10 06:52:18;;;;;;;9.52;1.90;;;10.00;99.90;;;;;;5002484;28;20328;-72
2022/11/10 06:54:44;;;;;;;8.43;2.57;;;10.00;99.90;;;;;;5003167;28;20082;-79
2022/11/10 06:57:10;;;;;;;9.50;2.70;;;10.00;99.90;;;;;;4986888;28;20503;-74
2022/11/10 06:59:35;;;;;;;11.63;2.20;;;10.00;99.90;;;;;;4987535;28;20518;-73
2022/11/10 07:02:01;;;;;;;11.40;2.00;;;10.10;99.90;;;;;;5002653;28;20045;-74
2022/11/10 07:04:28;;;;;;;10.18;2.15;;;10.10;99.90;;;;;;4980618;28;20092;-73
2022/11/10 07:06:53;;;;;;;;;;;10.10;99.90;;;;;;5002584;28;20046;-73
2022/11/10 07:09:21;;;;;;;10.70;1.85;;;10.10;99.90;;;;;;5001134;28;20023;-74
2022/11/10 07:11:47;;;;;;;9.35;2.35;;;10.10;99.90;;;;;;4989732;28;20053;-78
2022/11/10 07:14:13;;;;;;;18.70;3.30;;;10.10;99.90;;;;;;5008141;28;20480;-75
2022/11/10 07:16:38;;;;;;;8.10;2.13;;;10.10;99.90;;;;;;5003920;28;20038;-78
2022/11/10 07:19:04;;;;;;;13.20;2.10;;;10.10;99.90;;;;;;4986051;28;20045;-72
2022/11/10 07:21:30;;;;;;;12.52;2.83;;;10.10;99.90;;;;;;4987591;28;20050;-71
2022/11/10 07:23:55;;;;;;;10.87;2.37;;;10.20;99.90;;;;;;4982706;28;20439;-72
2022/11/10 07:26:21;;;;;;;17.03;2.13;;;10.10;99.90;;;;;;5006201;28;20073;-71
2022/11/10 07:28:47;;;;;;;10.23;1.80;;;10.10;99.90;;;;;;5000004;28;20129;-71
2022/11/10 07:31:12;;;;;;;9.83;2.73;;;10.10;99.90;;;;;;5002810;28;20045;-72
2022/11/10 07:33:38;;;;;;;11.47;2.07;;;10.10;99.90;;;;;;4983720;28;20426;-72
2022/11/10 07:36:04;;;;;;;12.30;2.13;;;10.10;99.90;;;;;;5005963;28;20122;-72
2022/11/10 07:38:30;;;;;;;20.02;2.63;;;10.10;99.90;;;;;;5007059;28;20053;-74
2022/11/10 07:40:55;;;;;;;9.40;2.77;;;10.10;99.90;;;;;;4999268;28;20046;-71
2022/11/10 07:43:23;;;;;;;10.27;1.70;;;10.10;99.90;;;;;;5005613;28;20038;-71
2022/11/10 07:45:50;;;;;;;16.08;3.20;;;10.10;99.90;;;;;;5007090;28;20120;-72
2022/11/10 07:48:16;;;;;;;11.57;2.67;;;10.20;99.90;;;;;;4994945;28;20122;-72
2022/11/10 07:50:42;;;;;;;9.52;2.63;;;10.20;99.90;;;;;;4985461;28;20041;-71
2022/11/10 07:53:19;;;;;;;9.27;1.90;;;10.20;99.90;;;;;;5006873;28;20125;-72
2022/11/10 07:55:45;;;;;;;11.15;2.22;;;10.20;99.90;;;;;;5010227;28;20104;-72
2022/11/10 07:58:13;;;;;;;9.40;2.20;;;10.20;99.90;;;;;;4999999;28;20034;-71
2022/11/10 08:00:40;;;;;;;5.95;1.80;;;10.20;99.90;;;;;;4986157;28;20050;-72
2022/11/10 08:03:07;;;;;;;;;;;10.30;99.90;;;;;;5000771;28;20044;-72
2022/11/10 08:05:33;;;;;;;16.98;3.53;;;10.30;99.90;;;;;;5006381;28;19996;-71
2022/11/10 08:07:59;;;;;;;8.35;1.83;;;10.40;99.90;;;;;;5000303;28;20294;-72
2022/11/10 08:10:26;;;;;;;10.45;2.33;;;10.40;99.90;;;;;;5012211;28;20123;-72
2022/11/10 08:12:57;;;;;;;8.88;2.38;;;10.40;99.90;;;;;;4995716;28;20315;-71
2022/11/10 08:15:24;;;;;;;12.73;2.05;;;10.50;99.90;;;;;;5005264;28;20404;-72
2022/11/10 08:17:49;;;;;;;9.38;1.70;;;10.60;99.90;;;;;;4993952;28;20460;-72
2022/11/10 08:20:16;;;;;;;14.13;2.60;;;10.60;99.90;;;;;;5008485;28;20336;-72
2022/11/10 08:22:42;;;;;;;;;;;10.70;99.90;;;;;;5001065;28;20061;-71
2022/11/10 08:25:08;;;;;;;8.15;1.75;;;10.70;99.90;;;;;;4994079;28;20239;-72
2022/11/10 08:27:34;;;;;;;12.00;2.22;;;10.70;99.90;;;;;;4989853;28;20042;-72
2022/11/10 08:29:59;;;;;;;16.88;2.60;;;10.80;99.90;;;;;;5006686;28;20206;-71
2022/11/10 08:32:25;;;;;;;11.57;2.43;;;10.80;99.90;;;;;;5005540;28;20063;-72
2022/11/10 08:34:51;;;;;;;18.87;2.30;;;10.80;99.90;;;;;;5011828;28;20387;-71
2022/11/10 08:37:17;;;;;;;11.02;2.25;;;10.90;99.90;;;;;;4980352;28;20038;-72
2022/11/10 08:39:42;;;;;;;8.98;2.47;;;10.90;99.90;;;;;;4998655;28;20794;-71
2022/11/10 08:42:08;;;;;;;13.90;2.33;;;10.90;99.90;;;;;;4982584;28;20052;-71
2022/11/10 08:44:34;;;;;;;9.00;2.00;;;10.90;99.90;;;;;;5003746;28;20064;-71
2022/11/10 08:46:59;;;;;;;19.17;2.53;;;10.90;99.90;;;;;;4972383;28;20052;-71
2022/11/10 08:49:25;;;;;;;12.37;1.77;;;11.00;99.90;;;;;;5002385;28;20050;-72
2022/11/10 08:51:50;;;;;;;11.47;2.20;;;11.00;99.90;;;;;;5008592;28;20077;-72
2022/11/10 08:54:16;;;;;;;7.87;1.90;;;11.00;99.90;;;;;;5002354;28;20053;-72
2022/11/10 08:56:42;;;;;;;8.57;1.97;;;11.10;99.90;;;;;;5004376;28;20048;-71
2022/11/10 08:59:07;;;;;;;10.50;2.47;;;11.20;99.90;;;;;;4990124;28;20030;-71
2022/11/10 09:01:33;;;;;;;13.03;1.97;;;11.20;99.90;;;;;;5005858;28;20092;-71
2022/11/10 09:03:59;;;;;;;10.67;1.90;;;11.30;99.90;;;;;;4985829;28;20057;-71
2022/11/10 09:06:24;;;;;;;9.23;2.50;;;11.30;99.90;;;;;;5005992;28;20526;-71
2022/11/10 09:08:50;;;;;;;11.33;2.80;;;11.40;99.90;;;;;;4984241;28;20034;-72
2022/11/10 09:11:15;;;;;;;14.47;1.67;;;11.50;99.90;;;;;;4995930;28;20125;-73
2022/11/10 09:13:41;;;;;;;11.37;2.07;;;11.60;99.90;;;;;;5005852;28;20125;-72
2022/11/10 09:16:07;;;;;;;16.77;2.40;;;11.60;99.90;;;;;;5006824;28;20121;-72
2022/11/10 09:18:33;;;;;;;12.40;2.47;;;11.70;99.90;;;;;;5004839;28;20081;-71
2022/11/10 09:21:01;;;;;;;12.57;2.38;;;11.80;99.90;;;;;;5046160;23;20049;-88
2022/11/10 09:23:29;;;;;;;10.95;2.92;;;11.80;99.90;;;;;;5011031;28;20041;-88
2022/11/10 09:25:55;;;;;;;8.23;1.92;;;11.80;99.90;;;;;;5028007;28;20061;-87
2022/11/10 09:28:22;;;;;;;8.50;2.17;;;11.90;99.90;;;;;;4992141;28;20053;-88
2022/11/10 09:30:52;;;;;;;18.08;2.92;;;11.90;99.90;;;;;;5009768;28;20125;-88
2022/11/10 09:33:18;;;;;;;10.50;3.08;;;11.90;99.90;;;;;;4990261;28;20034;-87
2022/11/10 09:35:44;;;;;;;13.98;2.28;;;11.90;99.90;;;;;;5012397;28;20049;-89
2022/11/10 09:38:10;;;;;;;10.47;2.30;;;11.90;99.90;;;;;;5012416;28;20104;-89
2022/11/10 09:40:47;;;;;;;14.68;2.25;;;12.00;99.90;;;;;;5010310;28;20311;-90
2022/11/10 09:43:46;;;;;;;15.00;2.38;;;12.00;99.90;;;;;;5020483;28;20076;-89
2022/11/10 09:46:54;;;;;;;18.85;2.47;;;12.00;99.90;;;;;;5025083;28;20061;-88
2022/11/10 09:50:06;;;;;;;8.40;2.28;;;12.10;99.90;;;;;;4995755;28;20037;-88
2022/11/10 09:52:52;;;;;;;9.80;2.38;;;12.10;99.90;;;;;;4957243;28;20043;-88
2022/11/10 09:55:41;;;;;;;11.98;2.35;;;12.20;99.90;;;;;;5020233;28;20065;-92
2022/11/10 09:58:15;;;;;;;19.83;3.80;;;12.30;99.90;;;;;;5023869;28;20102;-88
2022/11/10 10:00:45;;;;;;;13.13;2.78;;;12.20;99.90;;;;;;5028551;28;20030;-88
2022/11/10 10:03:17;;;;;;;11.25;2.42;;;12.40;99.90;;;;;;5034472;28;20045;-90
2022/11/10 10:06:15;;;;;;;8.75;2.42;;;12.50;99.90;;;;;;5032952;28;20045;-89
2022/11/10 10:09:35;;;;;;;11.73;2.63;;;12.50;99.90;;;;;;5016031;28;20045;-89
2022/11/10 10:12:35;;;;;;;10.15;1.70;;;12.60;99.90;;;;;;5015526;28;20423;-88
2022/11/10 10:15:57;;;;;;;10.75;3.88;;;12.60;99.90;;;;;;5029170;28;20046;-88
2022/11/10 10:18:43;;;;;;;13.00;3.60;;;12.70;99.90;;;;;;5030274;28;20050;-90
2022/11/10 10:21:53;;;;;;;13.65;3.50;;;12.80;99.90;;;;;;5031081;28;20045;-88
2022/11/10 10:24:26;;;;;;;14.05;3.70;;;12.90;99.90;;;;;;5034230;28;20088;-88
2022/11/10 10:27:04;;;;;;;17.95;5.25;;;13.00;99.90;;;;;;5014249;28;20073;-89
2022/11/10 10:29:38;;;;;;;12.73;3.13;;;12.80;99.90;;;;;;5001442;28;20072;-90
2022/11/10 10:32:34;;;;;;;12.02;2.17;;;13.00;99.90;;;;;;5002574;28;20088;-89
2022/11/10 10:35:00;;;;;;;13.82;2.53;;;12.90;99.90;;;;;;5032285;28;20030;-90
2022/11/10 10:37:46;;;;;;;13.13;2.83;;;12.90;99.90;;;;;;5011313;28;20037;-89
2022/11/10 10:40:21;;;;;;;11.40;2.15;;;12.90;99.90;;;;;;5016578;28;20034;-89
2022/11/10 10:42:47;;;;;;;10.52;2.30;;;12.90;99.90;;;;;;5017696;28;20042;-91
2022/11/10 10:45:14;;;;;;;;;;;12.90;99.90;;;;;;5024148;23;20096;-68
2022/11/10 10:47:40;;;;;;;10.07;2.58;;;12.90;99.90;;;;;;5009495;28;20353;-68
2022/11/10 10:50:21;;;;;;;8.85;2.47;;;12.90;99.90;;;;;;5008524;28;20119;-68
2022/11/10 10:53:13;;;;;;;12.45;2.97;;;12.90;99.90;;;;;;5008522;28;20328;-68
2022/11/10 10:55:51;;;;;;;13.27;2.70;;;12.90;99.90;;;;;;4998577;28;20107;-68
2022/11/10 10:58:49;;;;;;;8.35;2.53;;;12.90;99.90;;;;;;5010199;28;20504;-68
2022/11/10 11:01:15;;;;;;;11.15;2.78;;;12.90;99.90;;;;;;5018390;28;20053;-68
2022/11/10 11:03:46;;;;;;;10.20;3.23;;;12.90;99.90;;;;;;4993025;28;20048;-68
2022/11/10 11:06:15;;;;;;;11.32;3.03;;;12.90;99.90;;;;;;5025192;28;20116;-67
2022/11/10 11:09:06;;;;;;;13.27;3.25;;;12.90;99.90;;;;;;5023125;28;20102;-68
2022/11/10 11:11:35;;;;;;;9.07;2.72;;;12.90;99.90;;;;;;5008920;28;20117;-68
2022/11/10 11:14:21;;;;;;;12.70;2.30;;;12.90;99.90;;;;;;5010716;28;20045;-68
2022/11/10 11:16:53;;;;;;;14.80;2.67;;;12.90;99.90;;;;;;5027515;28;20044;-68
2022/11/10 11:19:22;;;;;;;9.45;2.50;;;12.90;99.90;;;;;;5001661;28;20129;-68
2022/11/10 11:22:27;;;;;;;13.15;2.85;;;12.90;99.90;;;;;;5009293;28;20959;-68
2022/11/10 11:24:53;;;;;;;7.55;2.00;;;12.90;99.90;;;;;;5015177;28;20064;-68
2022/11/10 11:27:27;;;;;;;11.60;2.23;;;12.90;99.90;;;;;;5027034;28;20040;-68
2022/11/10 11:30:08;;;;;;;9.90;2.10;;;12.90;99.90;;;;;;5024109;28;20344;-68
2022/11/10 11:32:37;;;;;;;11.30;3.15;;;12.90;99.90;;;;;;5028427;28;20129;-68
2022/11/10 11:35:33;;;;;;;10.98;2.30;;;13.00;99.90;;;;;;5010718;28;20396;-69
2022/11/10 11:38:05;;;;;;;12.55;2.85;;;12.90;99.90;;;;;;5020110;28;20064;-68
2022/11/10 11:41:06;;;;;;;13.57;1.92;;;13.00;99.90;;;;;;5026494;28;20041;-68
2022/11/10 11:43:58;;;;;;;11.63;2.00;;;13.00;99.90;;;;;;5005027;28;20075;-68
2022/11/10 11:46:24;;;;;;;15.30;2.97;;;13.00;99.90;;;;;;5012502;28;20045;-68
2022/11/10 11:48:54;;;;;;;11.67;2.50;;;12.90;99.90;;;;;;4999227;28;20365;-68
2022/11/10 11:51:19;;;;;;;16.75;1.95;;;13.00;99.90;;;;;;5005801;28;20295;-68
2022/11/10 11:54:03;;;;;;;14.27;2.37;;;12.90;99.90;;;;;;5028383;28;20033;-68
2022/11/10 11:56:38;;;;;;;8.80;1.80;;;12.90;99.90;;;;;;5007947;28;20048;-68
2022/11/10 11:59:06;;;;;;;13.02;2.10;;;12.90;99.90;;;;;;5020680;28;20368;-68
2022/11/10 12:01:37;;;;;;;10.70;2.50;;;12.90;99.90;;;;;;5004074;28;20450;-68
2022/11/10 12:04:33;;;;;;;15.55;1.92;;;13.00;99.90;;;;;;5013398;28;20048;-68
2022/11/10 12:07:34;;;;;;;13.38;2.08;;;13.00;99.90;;;;;;5009944;28;20045;-68
2022/11/10 12:10:27;;;;;;;6.57;1.60;;;13.00;99.90;;;;;;5021577;28;20052;-68
2022/11/10 12:12:58;;;;;;;12.27;2.63;;;12.90;99.90;;;;;;5010655;28;20049;-68
2022/11/10 12:15:53;;;;;;;12.52;2.90;;;13.00;99.90;;;;;;5018849;28;20121;-68
2022/11/10 12:18:45;;;;;;;12.20;2.45;;;13.00;99.90;;;;;;5024545;28;20038;-68
2022/11/10 12:21:25;;;;;;;9.48;1.73;;;13.00;99.90;;;;;;5032089;28;20080;-68
2022/11/10 12:24:15;;;;;;;10.45;1.88;;;13.00;99.90;;;;;;5012304;28;20084;-68
2022/11/10 12:27:33;;;;;;;10.05;1.85;;;13.00;99.90;;;;;;5021582;28;20063;-68
2022/11/10 12:30:04;;;;;;;10.02;1.55;;;13.00;99.90;;;;;;4994219;28;20048;-68
2022/11/10 12:32:42;;;;;;;15.15;1.88;;;13.10;99.90;;;;;;5012152;28;20052;-68
2022/11/10 12:35:13;;;;;;;6.72;1.83;;;13.20;99.90;;;;;;5007487;28;20037;-68
2022/11/10 12:37:49;;;;;;;9.45;2.63;;;13.20;99.90;;;;;;5016110;28;20092;-68
2022/11/10 12:40:16;;;;;;;12.73;1.83;;;13.20;99.90;;;;;;5002528;28;20069;-68
2022/11/10 12:42:59;;;;;;;8.02;2.53;;;13.20;99.90;;;;;;5020044;28;20085;-68
2022/11/10 12:45:35;;;;;;;9.98;2.03;;;13.10;99.90;;;;;;4996719;28;20057;-68
2022/11/10 12:48:03;;;;;;;7.65;1.80;;;13.10;99.90;;;;;;5010267;28;20049;-68
2022/11/10 12:50:31;;;;;;;10.88;1.92;;;13.10;99.90;;;;;;5017042;28;20068;-68
2022/11/10 12:53:04;;;;;;;12.23;2.30;;;13.10;99.90;;;;;;5013078;28;20506;-68
2022/11/10 12:55:44;;;;;;;10.82;2.13;;;13.10;99.90;;;;;;5020368;28;24258;-69
2022/11/10 12:58:12;;;;;;;13.32;2.15;;;13.10;99.90;;;;;;4996702;28;20037;-68
2022/11/10 13:00:42;;;;;;;10.93;2.10;;;13.10;99.90;;;;;;5014045;28;20459;-68
2022/11/10 13:03:25;;;;;;;10.57;2.05;;;13.10;99.90;;;;;;4993962;28;20347;-68
2022/11/10 13:05:56;;;;;;;12.30;2.40;;;13.10;99.90;;;;;;5027451;28;20328;-68
2022/11/10 13:08:32;;;;;;;13.10;2.45;;;13.20;99.90;;;;;;5030777;28;20075;-68
2022/11/10 13:11:26;;;;;;;15.20;2.80;;;13.20;99.90;;;;;;5012370;28;20064;-68
2022/11/10 13:14:01;;;;;;;8.45;2.40;;;13.20;99.90;;;;;;4991383;28;20053;-68
2022/11/10 13:16:50;;;;;;;15.10;2.50;;;13.20;99.90;;;;;;5028590;28;20509;-68
2022/11/10 13:19:22;;;;;;;13.48;2.33;;;13.30;99.90;;;;;;5006134;28;20077;-68